KLGF/LGF METAR and TAF weather

Enter ICAO airport designator
Station Type Date Time Source
KLGF METAR 2019/05/25 14:58 UTC NOAA

KLGF 251458Z AUTO 00000KT 10SM CLR 22/00 A2981 RMK AO2 SLPNO T02201001 52011 $


Station Type Date Time Source
KLGF Decoded METAR 2019/05/25 14:58 UTC NOAA

Station name not available
May 25, 2019 - 10:58 AM EDT / 2019.05.25 1458 UTC
Wind: Calm:0
Visibility: 10 mile(s):0
Sky conditions: clear
Temperature: 71.6 F (22.0 C)
Dew Point: 31.8 F (-0.1 C)
Relative Humidity: 22%
Pressure (altimeter): 29.81 in. Hg (1009 hPa)
Pressure tendency: 0.03 inches (1.1 hPa) higher than three hours ago
ob: KLGF 251458Z AUTO 00000KT 10SM CLR 22/00 A2981 RMK AO2 SLPNO T02201001 52011
cycle: 15

Station Type Date Time Source
KLGF TAF UTC NOAA

Error!

Example: see airport list